createdAt,value
2018-08-28T00:00:26.285Z,96.50
2018-08-28T00:02:54.780Z,96.60
2018-08-28T00:05:23.287Z,96.60
2018-08-28T00:07:51.787Z,96.70
2018-08-28T00:10:20.340Z,97.10
2018-08-28T00:12:48.817Z,96.80
2018-08-28T00:15:17.310Z,97.50
2018-08-28T00:17:45.812Z,97.50
2018-08-28T00:20:14.293Z,96.40
2018-08-28T00:22:42.780Z,97.00
2018-08-28T00:25:11.416Z,97.20
2018-08-28T00:27:39.937Z,98.00
2018-08-28T00:30:08.472Z,97.20
2018-08-28T00:32:37.001Z,98.00
2018-08-28T00:35:05.580Z,98.20
2018-08-28T00:37:34.092Z,97.90
2018-08-28T00:40:02.623Z,97.90
2018-08-28T00:42:31.282Z,98.90
2018-08-28T00:44:59.764Z,98.90
2018-08-28T00:47:28.351Z,98.80
2018-08-28T00:49:56.834Z,99.00
2018-08-28T00:52:25.478Z,98.80
2018-08-28T00:54:53.965Z,99.30
2018-08-28T00:57:22.448Z,99.70
2018-08-28T00:59:50.927Z,99.50
2018-08-28T01:02:19.460Z,99.50
2018-08-28T01:04:47.927Z,99.60
2018-08-28T01:07:16.412Z,99.50
2018-08-28T01:09:44.919Z,98.90
2018-08-28T01:12:13.392Z,99.30
2018-08-28T01:14:41.936Z,98.90
2018-08-28T01:17:10.442Z,99.40
2018-08-28T01:19:38.962Z,99.00
2018-08-28T01:22:07.462Z,99.90
2018-08-28T01:24:36.091Z,99.90
2018-08-28T01:27:04.613Z,99.90
2018-08-28T01:29:33.109Z,99.90
2018-08-28T01:32:01.865Z,99.90
2018-08-28T01:34:30.323Z,99.90
2018-08-28T01:36:58.796Z,99.90
2018-08-28T01:39:27.321Z,99.90
2018-08-28T01:41:55.854Z,99.90
2018-08-28T01:44:24.387Z,99.90
2018-08-28T01:46:52.943Z,99.90
2018-08-28T01:49:21.436Z,99.90
2018-08-28T01:51:49.940Z,99.90
2018-08-28T01:54:18.462Z,99.90
2018-08-28T01:56:46.954Z,99.90
2018-08-28T01:59:15.443Z,99.90
2018-08-28T02:01:43.962Z,99.90
2018-08-28T02:04:12.636Z,99.90
2018-08-28T02:06:41.163Z,99.90
2018-08-28T02:09:09.715Z,99.90
2018-08-28T02:11:38.188Z,99.90
2018-08-28T02:14:06.699Z,99.90
2018-08-28T02:16:35.204Z,99.90
2018-08-28T02:19:03.708Z,99.90
2018-08-28T02:21:32.205Z,99.90
2018-08-28T02:24:00.727Z,99.90
2018-08-28T02:26:29.280Z,99.90
2018-08-28T02:28:57.754Z,99.90
2018-08-28T02:31:26.295Z,99.90
2018-08-28T02:33:54.832Z,99.90
2018-08-28T02:36:23.353Z,99.90
2018-08-28T02:38:51.855Z,99.90
2018-08-28T02:41:20.332Z,99.90
2018-08-28T02:43:48.889Z,99.90
2018-08-28T02:46:17.385Z,99.90
2018-08-28T02:48:45.852Z,99.90
2018-08-28T02:51:14.357Z,99.90
2018-08-28T02:53:42.986Z,99.90
2018-08-28T02:56:11.518Z,99.90
2018-08-28T02:58:39.982Z,99.90
2018-08-28T03:01:08.480Z,99.90
2018-08-28T03:03:36.959Z,99.90
2018-08-28T03:06:05.487Z,99.90
2018-08-28T03:08:33.996Z,99.90
2018-08-28T03:11:02.544Z,99.90
2018-08-28T03:13:31.013Z,99.90
2018-08-28T03:15:59.583Z,99.90
2018-08-28T03:18:28.062Z,99.90
2018-08-28T03:20:56.575Z,99.90
2018-08-28T03:23:25.082Z,99.90
2018-08-28T03:25:53.577Z,99.90
2018-08-28T03:28:22.065Z,99.90
2018-08-28T03:30:50.573Z,99.90
2018-08-28T03:33:19.060Z,99.90
2018-08-28T03:35:47.531Z,99.90
2018-08-28T03:38:16.062Z,99.90
2018-08-28T03:40:44.533Z,99.90
2018-08-28T03:43:13.020Z,99.90
2018-08-28T03:45:41.544Z,99.90
2018-08-28T03:48:10.027Z,99.90
2018-08-28T03:50:38.580Z,99.90
2018-08-28T03:53:07.092Z,99.90
2018-08-28T03:55:35.829Z,99.90
2018-08-28T03:58:04.325Z,99.90
2018-08-28T04:00:32.844Z,99.90
2018-08-28T04:03:01.384Z,99.90
2018-08-28T04:05:29.883Z,99.90
2018-08-28T04:07:58.473Z,99.90
2018-08-28T04:10:27.959Z,99.90
2018-08-28T04:12:56.492Z,99.90
2018-08-28T04:15:25.044Z,99.90
2018-08-28T04:17:53.553Z,99.90
2018-08-28T04:20:22.120Z,99.90
2018-08-28T04:22:50.659Z,99.90
2018-08-28T04:25:20.008Z,99.90
2018-08-28T04:27:48.698Z,99.90
2018-08-28T04:30:17.203Z,99.90
2018-08-28T04:32:45.672Z,99.90
2018-08-28T04:35:14.154Z,99.90
2018-08-28T04:37:42.693Z,99.90
2018-08-28T04:40:11.192Z,99.90
2018-08-28T04:42:39.671Z,99.90
2018-08-28T04:45:08.225Z,99.90
2018-08-28T04:47:36.699Z,99.90
2018-08-28T04:50:05.708Z,99.90
2018-08-28T04:52:34.287Z,99.90
2018-08-28T04:55:02.972Z,99.90
2018-08-28T04:57:31.315Z,99.90
2018-08-28T04:59:59.819Z,99.90
2018-08-28T05:02:34.133Z,99.90
2018-08-28T05:05:03.696Z,99.90
2018-08-28T05:07:32.200Z,99.90
2018-08-28T05:10:00.682Z,99.90
2018-08-28T05:12:29.204Z,99.90
2018-08-28T05:14:57.930Z,99.90
2018-08-28T05:17:26.472Z,99.90
2018-08-28T05:19:55.201Z,99.90
2018-08-28T05:22:24.187Z,99.90
2018-08-28T05:24:52.707Z,99.90
2018-08-28T05:27:21.591Z,99.90
2018-08-28T05:29:50.096Z,99.90
2018-08-28T05:32:18.573Z,99.90
2018-08-28T05:34:47.103Z,99.70
2018-08-28T05:37:15.628Z,99.90
2018-08-28T05:39:44.126Z,99.60
2018-08-28T05:42:12.623Z,99.00
2018-08-28T05:44:41.124Z,99.00
2018-08-28T05:47:09.614Z,98.80
2018-08-28T05:49:38.185Z,99.10
2018-08-28T05:52:06.800Z,97.80
2018-08-28T05:54:35.280Z,95.90
2018-08-28T05:57:03.809Z,95.90
2018-08-28T05:59:32.296Z,95.30
2018-08-28T06:02:01.105Z,94.60
2018-08-28T06:04:29.608Z,94.40
2018-08-28T06:06:58.078Z,94.80
2018-08-28T06:09:26.551Z,94.30
2018-08-28T06:11:55.066Z,93.50
2018-08-28T06:14:23.588Z,93.30
2018-08-28T06:16:52.092Z,92.90
2018-08-28T06:19:20.596Z,90.90
2018-08-28T06:21:49.088Z,92.50
2018-08-28T06:24:17.577Z,90.50
2018-08-28T06:26:46.084Z,90.90
2018-08-28T06:29:14.596Z,91.60
2018-08-28T06:31:43.069Z,91.80
2018-08-28T06:34:11.975Z,91.50
2018-08-28T06:36:40.449Z,90.80
2018-08-28T06:39:09.524Z,90.10
2018-08-28T06:41:38.306Z,88.90
2018-08-28T06:44:07.171Z,87.00
2018-08-28T06:46:35.680Z,86.30
2018-08-28T06:49:04.478Z,85.70
2018-08-28T06:51:33.023Z,85.50
2018-08-28T06:54:01.482Z,84.10
2018-08-28T06:56:30.013Z,86.30
2018-08-28T06:58:58.531Z,85.10
2018-08-28T07:01:27.084Z,83.40
2018-08-28T07:03:55.666Z,82.80
2018-08-28T07:06:24.096Z,80.40
2018-08-28T07:08:52.582Z,82.00
2018-08-28T07:11:21.107Z,81.20
2018-08-28T07:13:49.637Z,80.40
2018-08-28T07:16:18.124Z,81.00
2018-08-28T07:18:46.706Z,79.90
2018-08-28T07:21:15.186Z,80.30
2018-08-28T07:23:43.676Z,78.60
2018-08-28T07:26:12.393Z,79.30
2018-08-28T07:28:40.851Z,77.70
2018-08-28T07:31:09.465Z,79.70
2018-08-28T07:34:41.497Z,75.30
2018-08-28T07:37:10.017Z,70.90
2018-08-28T07:39:38.512Z,68.50
2018-08-28T07:42:07.082Z,67.40
2018-08-28T07:44:35.662Z,65.20
2018-08-28T07:47:04.249Z,65.30
2018-08-28T07:49:32.869Z,64.10
2018-08-28T07:52:01.364Z,61.20
2018-08-28T07:54:29.871Z,60.30
2018-08-28T07:56:58.397Z,61.30
2018-08-28T07:59:26.917Z,59.90
2018-08-28T08:02:01.876Z,58.40
2018-08-28T08:04:30.367Z,59.30
2018-08-28T08:06:58.868Z,57.90
2018-08-28T08:09:27.381Z,58.80
2018-08-28T08:11:55.900Z,57.50
2018-08-28T08:14:24.416Z,58.80
2018-08-28T08:16:52.956Z,60.40
2018-08-28T08:19:21.432Z,58.30
2018-08-28T08:21:49.956Z,60.20
2018-08-28T08:24:18.470Z,58.30
2018-08-28T08:26:46.981Z,57.90
2018-08-28T08:29:15.516Z,57.90
2018-08-28T08:31:44.037Z,57.10
2018-08-28T08:34:12.548Z,56.60
2018-08-28T08:36:41.112Z,57.00
2018-08-28T08:39:10.478Z,57.20
2018-08-28T08:41:39.619Z,50.50
2018-08-28T08:44:08.237Z,50.30
2018-08-28T08:46:36.770Z,49.40
2018-08-28T08:49:05.297Z,49.20
2018-08-28T08:51:33.785Z,48.90
2018-08-28T08:54:02.324Z,47.80
2018-08-28T08:56:30.797Z,46.10
2018-08-28T08:58:59.288Z,46.80
2018-08-28T09:01:27.841Z,45.70
2018-08-28T09:03:56.320Z,42.80
2018-08-28T09:06:24.818Z,43.90
2018-08-28T09:08:53.334Z,42.10
2018-08-28T09:11:21.904Z,40.90
2018-08-28T09:13:50.612Z,40.80
2018-08-28T09:16:19.139Z,41.50
2018-08-28T09:18:47.680Z,38.00
2018-08-28T09:21:16.262Z,38.30
2018-08-28T09:23:44.825Z,36.70
2018-08-28T09:26:13.347Z,39.90
2018-08-28T09:28:41.879Z,41.80
2018-08-28T09:31:10.502Z,44.30
2018-08-28T09:33:39.184Z,42.30
2018-08-28T09:36:07.729Z,44.70
2018-08-28T09:38:36.282Z,43.80
2018-08-28T09:41:04.886Z,44.90
2018-08-28T09:43:33.385Z,44.60
2018-08-28T09:46:01.896Z,45.20
2018-08-28T09:48:30.473Z,43.80
2018-08-28T09:50:59.234Z,41.00
2018-08-28T09:53:27.734Z,40.30
2018-08-28T09:55:56.222Z,40.10
2018-08-28T09:58:24.983Z,38.20
2018-08-28T10:00:58.688Z,34.60
2018-08-28T10:03:27.173Z,32.90
2018-08-28T10:05:55.723Z,36.10
2018-08-28T10:08:24.231Z,37.10
2018-08-28T10:10:52.734Z,37.60
2018-08-28T10:13:21.349Z,38.50
2018-08-28T10:15:49.877Z,39.10
2018-08-28T10:18:18.374Z,42.30
2018-08-28T10:20:46.845Z,36.90
2018-08-28T10:23:15.366Z,36.80
2018-08-28T10:25:43.948Z,39.20
2018-08-28T10:28:12.450Z,39.30
2018-08-28T10:30:40.958Z,39.00
2018-08-28T10:33:09.449Z,38.40
2018-08-28T10:35:38.058Z,39.10
2018-08-28T10:38:06.933Z,40.00
2018-08-28T10:40:35.415Z,39.90
2018-08-28T10:43:03.998Z,37.70
2018-08-28T10:45:32.493Z,36.80
2018-08-28T10:48:00.979Z,38.10
2018-08-28T10:50:29.483Z,39.30
2018-08-28T10:52:58.044Z,38.30
2018-08-28T10:55:26.682Z,35.50
2018-08-28T10:57:55.186Z,35.00
2018-08-28T11:00:23.765Z,36.80
2018-08-28T11:02:52.282Z,34.30
2018-08-28T11:05:20.788Z,36.50
2018-08-28T11:07:49.288Z,37.00
2018-08-28T11:10:17.797Z,37.40
2018-08-28T11:12:46.297Z,37.10
2018-08-28T11:15:14.818Z,37.90
2018-08-28T11:17:43.315Z,35.90
2018-08-28T11:20:11.839Z,34.80
2018-08-28T11:22:40.358Z,36.00
2018-08-28T11:25:09.308Z,33.80
2018-08-28T11:27:37.789Z,33.80
2018-08-28T11:30:06.612Z,33.70
2018-08-28T11:32:35.117Z,32.40
2018-08-28T11:35:03.659Z,33.00
2018-08-28T11:37:32.157Z,29.50
2018-08-28T11:40:00.661Z,25.50
2018-08-28T11:42:29.158Z,24.90
2018-08-28T11:44:57.668Z,22.40
2018-08-28T11:47:26.163Z,26.20
2018-08-28T11:49:54.666Z,27.10
2018-08-28T11:52:23.221Z,28.40
2018-08-28T11:54:51.698Z,24.90
2018-08-28T11:57:20.213Z,27.80
2018-08-28T11:59:48.715Z,31.00
2018-08-28T12:02:17.228Z,33.90
2018-08-28T12:04:45.772Z,37.00
2018-08-28T12:07:14.310Z,41.50
2018-08-28T12:09:42.794Z,32.30
2018-08-28T12:12:11.312Z,28.10
2018-08-28T12:14:39.799Z,26.80
2018-08-28T12:17:08.282Z,29.40
2018-08-28T12:19:36.821Z,26.20
2018-08-28T12:22:05.446Z,23.70
2018-08-28T12:24:33.972Z,22.50
2018-08-28T12:27:02.465Z,19.60
2018-08-28T12:29:31.055Z,20.20
2018-08-28T12:31:59.536Z,21.00
2018-08-28T12:34:28.091Z,20.00
2018-08-28T12:36:56.692Z,18.60
2018-08-28T12:39:25.165Z,18.20
2018-08-28T12:41:53.638Z,20.20
2018-08-28T12:44:22.153Z,21.00
2018-08-28T12:46:50.655Z,20.70
2018-08-28T12:49:19.147Z,20.60
2018-08-28T12:51:47.645Z,19.20
2018-08-28T12:54:16.145Z,18.80
2018-08-28T12:56:44.669Z,19.20
2018-08-28T12:59:13.181Z,18.60
2018-08-28T13:01:41.708Z,18.10
2018-08-28T13:04:10.182Z,20.00
2018-08-28T13:06:38.710Z,18.70
2018-08-28T13:09:07.278Z,17.30
2018-08-28T13:11:35.811Z,18.00
2018-08-28T13:14:04.338Z,17.80
2018-08-28T13:16:32.940Z,19.80
2018-08-28T13:19:01.429Z,20.00
2018-08-28T13:21:29.953Z,19.40
2018-08-28T13:23:58.449Z,18.50
2018-08-28T13:26:27.090Z,19.40
2018-08-28T13:28:55.628Z,16.40
2018-08-28T13:31:24.166Z,15.40
2018-08-28T13:33:52.645Z,16.00
2018-08-28T13:36:21.172Z,15.60
2018-08-28T13:38:49.656Z,16.40
2018-08-28T13:41:18.228Z,15.40
2018-08-28T13:43:46.758Z,15.10
2018-08-28T13:46:15.261Z,16.50
2018-08-28T13:48:43.791Z,16.10
2018-08-28T13:51:12.369Z,16.40
2018-08-28T13:53:40.933Z,16.30
2018-08-28T13:56:09.391Z,15.40
2018-08-28T13:58:37.895Z,15.30
2018-08-28T14:01:06.548Z,15.10
2018-08-28T14:03:35.043Z,15.40
2018-08-28T14:06:03.610Z,14.80
2018-08-28T14:08:32.089Z,15.10
2018-08-28T14:11:00.567Z,15.30
2018-08-28T14:13:29.129Z,16.90
2018-08-28T14:15:57.632Z,17.00
2018-08-28T14:18:26.157Z,15.70
2018-08-28T14:20:54.703Z,16.20
2018-08-28T14:23:23.257Z,16.90
2018-08-28T14:25:52.424Z,14.80
2018-08-28T14:28:20.928Z,14.90
2018-08-28T14:30:49.463Z,16.10
2018-08-28T14:33:17.951Z,17.60
2018-08-28T14:35:46.596Z,17.10
2018-08-28T14:38:14.989Z,17.60
2018-08-28T14:40:43.461Z,19.10
2018-08-28T14:43:11.988Z,18.10
2018-08-28T14:45:40.513Z,18.00
2018-08-28T14:48:09.021Z,16.70
2018-08-28T14:50:37.551Z,17.20
2018-08-28T14:53:06.255Z,16.30
2018-08-28T14:55:34.791Z,17.90
2018-08-28T14:58:03.351Z,20.10
2018-08-28T15:00:31.830Z,25.00
2018-08-28T15:03:00.326Z,27.40
2018-08-28T15:05:28.848Z,28.80
2018-08-28T15:07:57.367Z,29.40
2018-08-28T15:10:25.903Z,31.60
2018-08-28T15:12:54.437Z,31.80
2018-08-28T15:15:22.972Z,34.40
2018-08-28T15:17:51.527Z,34.00
2018-08-28T15:20:20.045Z,35.40
2018-08-28T15:22:48.540Z,39.20
2018-08-28T15:25:17.025Z,39.10
2018-08-28T15:27:45.629Z,38.50
2018-08-28T15:30:14.113Z,41.50
2018-08-28T15:32:42.715Z,41.30
2018-08-28T21:24:09.171Z,99.90
2018-08-28T21:26:37.685Z,99.90
2018-08-28T21:29:06.369Z,99.90
2018-08-28T21:31:34.800Z,99.90
2018-08-28T21:34:03.316Z,99.90
2018-08-28T21:36:32.009Z,99.90
2018-08-28T21:39:00.621Z,99.90
2018-08-28T21:41:29.321Z,99.90
2018-08-28T21:43:57.818Z,99.90
2018-08-28T21:46:26.359Z,99.90
2018-08-28T21:48:54.896Z,99.90
2018-08-28T21:51:23.399Z,99.90
2018-08-28T21:53:51.915Z,99.90
2018-08-28T21:56:20.430Z,99.90
2018-08-28T21:58:49.000Z,99.90
2018-08-28T22:01:17.608Z,99.90
2018-08-28T22:03:46.131Z,99.90
2018-08-28T22:06:19.990Z,99.90
2018-08-28T22:08:48.549Z,99.90
2018-08-28T22:11:17.073Z,99.90
2018-08-28T22:13:45.603Z,99.90
2018-08-28T22:16:14.115Z,99.90
2018-08-28T22:18:42.744Z,99.90
2018-08-28T22:21:11.290Z,99.90
2018-08-28T22:23:39.892Z,99.90
2018-08-28T22:26:08.410Z,99.90
2018-08-28T22:28:36.967Z,99.90
2018-08-28T22:31:05.520Z,99.90
2018-08-28T22:33:34.050Z,99.90
2018-08-28T22:36:02.604Z,99.90
2018-08-28T22:38:31.116Z,99.90
2018-08-28T22:40:59.649Z,99.90
2018-08-28T22:43:28.189Z,99.90
2018-08-28T22:45:56.718Z,99.90
2018-08-28T22:48:25.243Z,99.90
2018-08-28T22:50:53.797Z,99.90
2018-08-28T22:53:22.899Z,99.90
2018-08-28T22:55:51.386Z,99.90
2018-08-28T22:58:19.931Z,99.90
2018-08-28T23:00:48.418Z,99.90
2018-08-28T23:03:16.907Z,99.90
2018-08-28T23:05:45.451Z,99.90
2018-08-28T23:08:13.959Z,99.90
2018-08-28T23:10:42.456Z,99.90
2018-08-28T23:13:11.219Z,99.90
2018-08-28T23:15:39.712Z,99.90
2018-08-28T23:18:08.204Z,99.90
2018-08-28T23:20:36.746Z,99.90
2018-08-28T23:23:05.405Z,99.90
2018-08-28T23:25:33.907Z,99.90
2018-08-28T23:28:02.423Z,99.90
2018-08-28T23:30:30.914Z,99.90
2018-08-28T23:32:59.402Z,99.90
2018-08-28T23:35:27.933Z,99.90
2018-08-28T23:37:56.543Z,99.90
2018-08-28T23:40:25.055Z,99.90
2018-08-28T23:42:53.653Z,99.90
2018-08-28T23:45:22.174Z,99.90
2018-08-28T23:47:50.670Z,99.90
2018-08-28T23:50:19.192Z,99.90
2018-08-28T23:52:47.709Z,99.90
2018-08-28T23:55:16.213Z,99.90
2018-08-28T23:57:44.743Z,99.90
